Station: Yampi Sound (Defence)  

  Atmospheric Gas Attenuation - ITU Rec 676-11   ----------------- dB/100km -----------------
Date Time Temp RH % AH g/m3 Dew Point Wind Direction Speed kph Gust kph Barometer mB Rainfall Since 9am 24GHz 47GHz 76GHz 122GHz 134GHz 241GHz
05/05 21:00 23.2 77 16.01 18.9 0 0 1015.8 0 34.8 35.4 65.2 172.4 185.0 642.1
05/05 20:50 23.3 77 16.1 19 0 0 1015.8 0 34.9 35.5 65.6 173.2 186.1 645.9
05/05 20:40 23.5 77 16.28 19.2 0 0 1015.8 0 35.3 35.8 66.2 174.9 188.2 653.4
05/05 20:30 23.6 77 16.38 19.3 0 0 1015.8 0 35.5 35.9 66.6 175.9 189.5 657.6
05/05 20:20 24 70 15.23 18.2 0 0 1015.7 0 33.0 33.7 61.1 161.4 171.9 596.4
05/05 20:10 24.1 69 15.1 18.2 0 0 1015.7 0 32.8 33.4 60.5 159.7 169.8 589.2
05/05 20:00 24.3 68 15.05 18 0 0 1015.6 0 32.6 33.3 60.1 158.7 168.6 585.2
05/05 19:50 24.5 66 14.77 17.9 0 0 1015.7 0 32.0 32.7 58.8 155.2 164.3 570.1
05/05 19:40 24.8 66 15.02 18 0 0 1015.5 0 32.5 33.0 59.6 157.4 167.1 579.9
05/05 19:30 25.1 64 14.82 17.8 2 4 1015.4 0 32.1 32.6 58.5 154.5 163.7 568.0
05/05 19:20 25.3 64 14.98 18 4 4 1015.3 0 32.4 32.8 59.0 155.9 165.5 574.2
05/05 19:10 25.7 61 14.6 17.6 4 4 1015.2 0 31.6 32.0 57.1 150.9 159.4 553.1
05/05 19:00 26.4 58 14.44 17.5 2 4 1015 0 31.2 31.4 56.0 147.7 155.8 540.6
05/05 18:50 26.6 56 14.1 17.1 2 2 1014.8 0 30.5 30.8 54.4 143.7 150.8 523.3
05/05 18:40 27.7 51 13.64 16.9 2 2 1014.7 0 29.4 29.7 51.9 136.8 142.7 495.2
05/05 18:30 28.4 50 13.9 17 6 7 1014.5 0 29.9 29.9 52.4 138.3 144.8 502.4
05/05 18:20 28.3 49 13.55 16.8 6 7 1014.4 0 29.2 29.3 51.1 134.8 140.5 487.4
05/05 18:10 28.5 49 13.7 17 7 9 1014.3 0 29.5 29.5 51.6 136.0 142.0 492.8
05/05 18:00 28.7 49 13.85 17.2 9 11 1014.2 0 29.8 29.7 52.0 137.2 143.5 498.2
05/05 17:50 28.5 52 14.54 17.9 9 11 1014.2 0 31.2 30.8 54.9 144.8 152.8 530.5
05/05 17:40 28.4 53 14.73 17.9 9 11 1014 0 31.6 31.2 55.7 147.0 155.5 539.8
05/05 17:30 28.8 51 14.49 17.7 7 9 1014.1 0 31.1 30.6 54.4 143.7 151.6 526.2
05/05 17:20 29.1 50 14.44 17.9 9 11 1014 0 31.0 30.5 54.0 142.6 150.3 521.9
05/05 17:10 29.5 48 14.17 17.6 7 9 1014 0 30.4 29.9 52.7 139.1 146.1 507.3
05/05 17:00 30.1 46 14.03 17.5 9 13 1013.9 0 30.1 29.5 51.8 136.6 143.2 497.2
05/05 16:50 30.7 45 14.17 17.4 9 11 1013.8 0 30.3 29.5 51.9 137.0 143.9 499.6
05/05 16:40 31.2 42 13.59 17.1 9 11 1013.8 0 29.1 28.4 49.4 130.4 135.8 471.5
05/05 16:30 31.8 42 14.03 17.3 9 13 1013.7 0 29.9 28.9 50.7 133.7 140.1 486.7
05/05 16:20 32.5 40 13.87 17.5 7 9 1013.7 0 29.6 28.4 49.6 131.0 137.0 475.7
05/05 16:10 32.8 38 13.39 17 6 6 1013.6 0 28.6 27.6 47.7 125.8 130.7 453.8
05/05 16:00 33.1 38 13.6 16.9 9 13 1013.5 0 29.0 27.8 48.3 127.4 132.7 460.8
05/05 15:50 33.5 37 13.53 17.2 9 13 1013.5 0 28.8 27.6 47.8 126.1 131.2 455.6
05/05 15:40 33.9 35 13.07 16.7 9 11 1013.4 0 27.8 26.8 45.9 121.1 125.2 434.5
05/05 15:30 34.6 35 13.56 16.9 7 11 1013.4 0 28.8 27.3 47.3 124.7 129.7 450.6
05/05 15:20 34.4 33 12.65 15.8 11 13 1013.3 0 26.9 26.1 44.2 116.4 119.6 415.0
05/05 15:10 34.5 32 12.33 15.4 13 15 1013.3 0 26.3 25.6 43.0 113.3 115.8 401.8
05/05 15:00 34.8 31 12.13 15.2 11 17 1013.2 0 25.8 25.2 42.2 111.1 113.1 392.5
05/05 14:50 35.4 29 11.71 15.1 7 9 1013.2 0 24.9 24.5 40.4 106.5 107.7 373.4
05/05 14:40 35.5 29 11.77 15.2 6 6 1013.2 0 25.1 24.6 40.6 106.9 108.2 375.3
05/05 14:30 35.9 30 12.43 16.1 6 9 1013.2 0 26.4 25.4 42.6 112.3 114.9 398.8
05/05 14:20 35.3 29 11.65 15 4 6 1013.2 0 24.8 24.5 40.3 106.1 107.1 371.6
05/05 14:10 35.7 29 11.9 15.4 7 9 1013.3 0 25.3 24.7 40.9 107.9 109.3 379.4
05/05 14:00 35.6 28 11.43 14.8 7 11 1013.4 0 24.4 24.1 39.4 103.8 104.4 361.9
05/05 13:50 35.8 28 11.54 14.9 7 9 1013.4 0 24.6 24.2 39.7 104.5 105.3 365.2
05/05 13:40 35.2 28 11.19 14.4 7 7 1013.4 0 23.9 23.9 38.8 102.2 102.3 354.6
05/05 13:30 35.3 27 10.85 14 6 9 1013.6 0 23.2 23.4 37.7 99.2 98.5 341.4
05/05 13:20 35 27 10.68 13.7 6 6 1013.7 0 22.9 23.2 37.3 98.0 97.1 336.3
05/05 13:10 35.1 27 10.74 13.8 6 7 1013.7 0 23.0 23.3 37.4 98.4 97.6 338.2
05/05 13:00 34.9 28 11.02 13.7 7 11 1013.8 0 23.6 23.7 38.4 101.1 100.9 349.5
05/05 12:50 34.8 28 10.96 13.6 6 7 1014 0 23.4 23.7 38.3 100.8 100.3 347.8
05/05 12:40 34.8 28 10.96 13.6 9 11 1014.1 0 23.4 23.7 38.3 100.8 100.4 347.8
05/05 12:30 34.5 27 10.4 13.3 6 9 1014.3 0 22.3 23.0 36.6 96.3 94.7 328.0
05/05 12:20 34.5 26 10.02 12.7 6 7 1014.4 0 21.5 22.5 35.4 93.0 90.7 314.0
05/05 12:10 35.1 27 10.74 13.3 7 9 1014.5 0 23.0 23.3 37.5 98.5 97.7 338.4
05/05 12:00 34.5 27 10.4 12.8 4 9 1014.6 0 22.3 23.0 36.6 96.3 94.8 328.1
05/05 11:50 33.1 27 9.67 11.6 6 6 1014.8 0 20.9 22.4 34.9 91.6 88.6 306.4
05/05 11:40 33.5 27 9.87 11.9 2 4 1014.9 0 21.3 22.6 35.4 92.9 90.3 312.3
05/05 11:30 34 26 9.76 11.8 4 9 1015.1 0 21.0 22.3 34.8 91.4 88.6 306.4
05/05 11:20 34.1 25 9.43 11.8 9 11 1015.2 0 20.3 21.9 33.7 88.5 85.0 294.0
05/05 11:10 33.8 26 9.66 11.6 6 7 1015.5 0 20.8 22.3 34.6 90.8 87.8 303.6
05/05 11:00 32.9 27 9.56 11.4 6 11 1015.7 0 20.7 22.4 34.6 90.9 87.7 303.2
05/05 10:50 32.9 25 8.86 10.8 4 6 1015.7 0 19.2 21.4 32.4 85.0 80.4 277.5
05/05 10:40 32.4 27 9.31 11 4 6 1015.8 0 20.2 22.1 34.0 89.3 85.6 295.8
05/05 10:30 32.1 27 9.17 10.8 4 15 1015.8 0 19.9 22.0 33.7 88.5 84.4 291.6
05/05 10:20 31.4 26 8.5 10.1 6 7 1016 0 18.6 21.3 31.9 83.5 78.1 269.4
05/05 10:10 31.4 26 8.5 10.1 6 7 1016.1 0 18.6 21.3 31.9 83.5 78.1 269.4
05/05 10:00 30.9 28 8.91 10.3 7 13 1013.1 0 19.4 21.9 33.3 87.3 82.7 285.5
05/05 09:50 30.4 28 8.68 9.8 6 7 1013.1 0 19.0 21.7 32.7 85.8 80.8 278.6
05/05 09:40 29.7 28 8.36 9.7 4 6 1013.1 0 18.4 21.4 32.0 83.8 78.0 269.0
05/05 09:30 29.3 30 8.76 9.9 4 9 1013.1 0 19.2 22.1 33.4 87.6 82.7 285.4
05/05 09:20 28.5 30 8.39 9.2 6 7 1013.1 0 18.5 21.8 32.5 85.2 79.5 274.1
05/05 09:10 28 30 8.16 8.8 7 9 1013.1 0 18.0 21.6 32.0 83.7 77.5 267.0
05/05 09:00 28.2 30 8.25 9 6 11 1013.1 0 18.2 21.6 32.2 84.3 78.3 269.8
05/05 08:50 27.6 29 7.72 8.4 4 6 1013.1 0 17.1 21.1 30.7 80.3 73.2 251.8
05/05 08:40 27.1 30 7.76 8 7 11 1013.1 0 17.2 21.2 31.0 81.1 74.1 254.8
05/05 08:30 26.9 31 7.93 8.4 7 11 1017 0 17.6 21.6 31.8 83.2 76.3 262.7
05/05 08:20 26.1 32 7.83 8.1 6 7 1017 0 17.4 21.7 31.7 83.1 76.0 261.4
05/05 08:10 25.4 32 7.53 7.9 7 9 1013.1 0 16.8 21.3 30.9 80.8 73.1 251.3
05/05 08:00 24.6 35 7.88 8.1 6 7 1013.1 0 17.6 22.0 32.3 84.7 77.7 267.3
05/05 07:50 24.2 36 7.92 8.2 7 9 1013.1 0 17.7 22.1 32.6 85.5 78.5 270.2
05/05 07:40 23.5 36 7.61 7.9 7 9 1013.1 0 17.1 21.9 31.9 83.4 75.7 260.3
05/05 07:30 22.9 38 7.77 7.8 6 9 1013.1 0 17.4 22.2 32.6 85.5 78.1 268.5
05/05 07:18 22.3 38 7.5 7.6 7 9 1013.1 0 16.9 22.0 32.0 83.6 75.6 259.7
05/05 07:10 22 38 7.37 7 6 7 1013.1 0 16.6 21.9 31.6 82.7 74.4 255.5
05/05 07:00 21.4 45 8.44 9 0 4 1013.1 0 18.9 23.6 35.6 93.4 87.4 301.0
05/05 06:50 20.7 47 8.46 9 4 4 1013.1 0 19.0 23.8 36.0 94.4 88.4 304.5
05/05 06:40 20.3 48 8.44 8.9 4 4 1013.1 0 18.9 23.8 36.1 94.7 88.6 305.1
05/05 06:30 19.4 53 8.84 9.6 6 9 1013.1 0 19.8 24.7 38.0 99.7 94.5 325.7
05/05 06:20 18 62 9.52 10.6 7 7 1013.1 0 21.3 26.1 41.3 108.5 104.9 361.8
05/05 06:10 18 60 9.21 10.3 6 7 1013.1 0 20.7 25.6 40.1 105.3 100.9 347.9
05/05 06:00 18.2 57 8.86 9.5 6 7 1013.1 0 19.9 25.0 38.6 101.4 96.3 331.5
05/05 05:50 18.5 57 9.02 9.8 4 6 1013.1 0 20.3 25.2 39.1 102.7 97.9 337.3
05/05 05:40 19.1 52 8.52 9 4 4 1013.1 0 19.2 24.3 36.9 96.9 91.0 313.1
05/05 05:30 19 52 8.47 8.9 7 7 1013.1 0 19.1 24.2 36.8 96.5 90.5 311.4
05/05 05:20 19.1 52 8.52 9 6 7 1013.1 0 19.2 24.3 36.9 96.9 91.0 313.1
05/05 05:10 19.7 50 8.49 9 4 6 1013.1 0 19.1 24.1 36.6 95.9 89.9 309.5
05/05 05:00 20.7 43 7.74 7.7 4 6 1013.1 0 17.5 22.7 33.4 87.5 79.9 274.6
05/05 04:50 20.7 40 7.2 6.9 4 6 1013.1 0 16.3 22.0 31.5 82.5 73.7 252.8
05/05 04:40 20.2 48 8.39 8.8 6 6 1013.1 0 18.8 23.8 36.0 94.3 88.1 303.4
05/05 04:30 20.4 47 8.31 8.7 4 7 1013.1 0 18.7 23.6 35.6 93.3 87.0 299.3

Last Refresh: 05-May-2026 22:37:30

Bureau of Meteorology